Duluth, Minnesota
Current Conditions -  °F | °C
As of 4:55 PM on Saturday 25 Oct 2014 (Local Time) from KDLH Reporting Station
Clear Clear  
Wind Chill: 56°   Ceiling: Unl
Heat Index: 56°   Visibility: 10mi
Dew Point: 25°   Wind: 20mph
Humidity: 30%   Direction: 280°W
Pressure: 29.93"   Gusts: 29mph
Location:  46.79°N, 92.09°W
Report Text: KDLH 252155Z 28017G25KT 10SM CLR 13/M04 A2993 RMK AO2 PK WND 30029/2114 SLP143 T01331039
Loading
Personal Weather Stations






























Interactive Weather Map
Tropical Storm Tracking
New forecast layout! Learn more

10-Day Weather Forecast

Advertisements
Track Severe Weather on mobile